createdAt,value
2023-03-16T00:02:44.416Z,100571.88
2023-03-16T00:05:47.152Z,100573.53
2023-03-16T00:08:49.918Z,100575.72
2023-03-16T00:11:52.283Z,100568.41
2023-03-16T00:14:55.017Z,100577.81
2023-03-16T00:17:57.406Z,100584.00
2023-03-16T00:21:02.326Z,100586.31
2023-03-16T00:24:04.789Z,100588.44
2023-03-16T00:27:07.111Z,100586.63
2023-03-16T00:30:11.409Z,100601.66
2023-03-16T00:33:14.196Z,100599.84
2023-03-16T00:36:16.899Z,100598.56
2023-03-16T00:39:18.894Z,100601.63
2023-03-16T00:42:27.531Z,100603.44
2023-03-16T00:45:29.914Z,100585.78
2023-03-16T00:48:34.805Z,100605.69
2023-03-16T00:51:37.012Z,100606.53
2023-03-16T00:54:39.233Z,100606.59
2023-03-16T00:57:41.867Z,100607.56
2023-03-16T01:00:43.923Z,100609.63
2023-03-16T01:03:46.664Z,100614.28
2023-03-16T01:06:52.032Z,100607.69
2023-03-16T01:09:54.141Z,100614.06
2023-03-16T01:12:56.346Z,100604.50
2023-03-16T01:15:59.665Z,100620.44
2023-03-16T01:19:02.184Z,100610.88
2023-03-16T01:22:06.551Z,100611.00
2023-03-16T01:25:12.276Z,100617.06
2023-03-16T01:28:14.422Z,100623.88
2023-03-16T01:31:17.105Z,100622.00
2023-03-16T01:34:19.269Z,100622.22
2023-03-16T01:37:22.647Z,100617.44
2023-03-16T01:40:24.694Z,100616.97
2023-03-16T01:43:30.888Z,100616.50
2023-03-16T01:46:33.196Z,100617.78
2023-03-16T01:49:38.824Z,100618.50
2023-03-16T01:52:40.966Z,100621.91
2023-03-16T01:55:43.793Z,100628.28
2023-03-16T01:58:47.098Z,100629.09
2023-03-16T02:01:52.051Z,100633.00
2023-03-16T02:05:42.515Z,100639.72
2023-03-16T02:08:47.269Z,100643.25
2023-03-16T02:11:50.325Z,100643.50
2023-03-16T02:14:52.877Z,100649.03
2023-03-16T02:17:58.221Z,100650.56
2023-03-16T02:21:29.133Z,100652.56
2023-03-16T02:24:31.571Z,100659.53
2023-03-16T02:28:00.956Z,100663.31
2023-03-16T02:31:05.119Z,100668.84
2023-03-16T02:34:07.893Z,100670.81
2023-03-16T02:37:10.469Z,100671.53
2023-03-16T02:40:30.455Z,100682.84
2023-03-16T02:43:36.412Z,100691.13
2023-03-16T02:46:39.891Z,100691.34
2023-03-16T02:50:06.623Z,100691.97
2023-03-16T02:53:09.029Z,100691.81
2023-03-16T02:56:11.582Z,100689.81
2023-03-16T02:59:13.951Z,100696.19
2023-03-16T03:02:15.997Z,100708.56
2023-03-16T03:05:18.360Z,100709.41
2023-03-16T03:08:22.562Z,100710.56
2023-03-16T03:11:24.619Z,100716.47
2023-03-16T03:14:28.600Z,100723.28
2023-03-16T03:17:33.161Z,100721.75
2023-03-16T03:20:35.484Z,100730.13
2023-03-16T03:23:37.838Z,100724.81
2023-03-16T03:26:39.826Z,100736.81
2023-03-16T03:29:41.936Z,100747.53
2023-03-16T03:32:44.843Z,100735.75
2023-03-16T03:35:47.245Z,100752.63
2023-03-16T03:38:54.935Z,100750.47
2023-03-16T03:41:57.099Z,100745.78
2023-03-16T03:44:59.204Z,100763.66
2023-03-16T03:48:01.577Z,100764.50
2023-03-16T03:51:04.284Z,100768.50
2023-03-16T03:54:06.790Z,100765.91
2023-03-16T03:57:09.962Z,100762.38
2023-03-16T04:00:13.806Z,100770.97
2023-03-16T04:03:17.819Z,100771.31
2023-03-16T04:06:20.008Z,100773.56
2023-03-16T04:09:22.680Z,100788.13
2023-03-16T04:12:24.984Z,100774.69
2023-03-16T04:15:27.438Z,100787.06
2023-03-16T04:18:30.518Z,100797.28
2023-03-16T04:21:32.679Z,100795.06
2023-03-16T04:24:35.916Z,100800.13
2023-03-16T04:27:38.506Z,100803.88
2023-03-16T04:30:43.166Z,100808.03
2023-03-16T04:33:45.891Z,100805.53
2023-03-16T04:36:48.774Z,100806.44
2023-03-16T04:39:51.132Z,100810.94
2023-03-16T04:42:53.390Z,100805.91
2023-03-16T04:45:56.185Z,100814.59
2023-03-16T04:48:58.847Z,100814.28
2023-03-16T04:52:03.217Z,100822.91
2023-03-16T04:55:06.424Z,100830.97
2023-03-16T04:58:11.454Z,100832.63
2023-03-16T05:01:14.221Z,100833.97
2023-03-16T05:04:19.597Z,100832.31
2023-03-16T05:07:22.398Z,100835.72
2023-03-16T05:10:25.268Z,100843.78
2023-03-16T05:13:31.161Z,100844.16
2023-03-16T05:16:33.977Z,100849.09
2023-03-16T05:19:37.533Z,100856.66
2023-03-16T05:22:45.261Z,100856.50
2023-03-16T05:25:48.721Z,100853.38
2023-03-16T05:28:51.086Z,100859.22
2023-03-16T05:31:54.334Z,100852.63
2023-03-16T05:35:00.913Z,100853.97
2023-03-16T05:38:04.581Z,100860.78
2023-03-16T05:41:07.872Z,100865.53
2023-03-16T05:44:13.524Z,100855.78
2023-03-16T05:47:15.574Z,100864.69
2023-03-16T05:50:19.630Z,100866.56
2023-03-16T05:53:30.831Z,100865.97
2023-03-16T05:56:36.465Z,100874.25
2023-03-16T05:59:38.624Z,100878.75
2023-03-16T06:02:42.441Z,100884.28
2023-03-16T06:05:44.566Z,100884.91
2023-03-16T06:08:46.930Z,100889.28
2023-03-16T06:11:51.414Z,100885.63
2023-03-16T06:14:53.885Z,100889.75
2023-03-16T06:17:56.140Z,100892.13
2023-03-16T06:20:58.409Z,100891.56
2023-03-16T06:24:01.044Z,100894.84
2023-03-16T06:27:05.341Z,100904.63
2023-03-16T06:30:12.146Z,100910.53
2023-03-16T06:33:14.660Z,100911.97
2023-03-16T06:36:17.559Z,100929.56
2023-03-16T06:39:20.331Z,100917.41
2023-03-16T06:42:24.014Z,100936.19
2023-03-16T06:45:26.059Z,100943.81
2023-03-16T06:48:28.665Z,100943.13
2023-03-16T06:51:32.315Z,100949.03
2023-03-16T06:54:35.381Z,100953.50
2023-03-16T06:57:37.632Z,100951.63
2023-03-16T07:00:40.034Z,100956.88
2023-03-16T07:03:42.960Z,100948.63
2023-03-16T07:06:45.035Z,100952.50
2023-03-16T07:09:47.073Z,100964.56
2023-03-16T07:12:50.451Z,100970.94
2023-03-16T07:15:52.922Z,100980.75
2023-03-16T07:18:55.562Z,100973.53
2023-03-16T07:21:59.563Z,100985.47
2023-03-16T07:25:05.352Z,100982.41
2023-03-16T07:28:08.053Z,100988.16
2023-03-16T07:31:11.337Z,100999.03
2023-03-16T07:34:14.429Z,100996.78
2023-03-16T07:37:18.337Z,100994.06
2023-03-16T07:40:24.384Z,100988.53
2023-03-16T07:43:27.047Z,100988.63
2023-03-16T07:46:29.649Z,100992.75
2023-03-16T07:49:41.366Z,101003.13
2023-03-16T07:52:46.408Z,100993.19
2023-03-16T07:55:49.892Z,100997.69
2023-03-16T07:58:52.921Z,100997.44
2023-03-16T08:01:55.653Z,101011.97
2023-03-16T08:05:05.003Z,101012.88
2023-03-16T08:08:09.895Z,101002.88
2023-03-16T08:11:25.553Z,101011.38
2023-03-16T08:14:40.110Z,100991.41
2023-03-16T08:17:47.637Z,101009.88
2023-03-16T08:21:04.739Z,100998.53
2023-03-16T08:24:19.180Z,101007.81
2023-03-16T08:27:22.452Z,101036.47
2023-03-16T08:34:18.319Z,101007.41
2023-03-16T08:37:29.410Z,101006.38
2023-03-16T08:40:37.379Z,101007.47
2023-03-16T08:43:58.514Z,101027.94
2023-03-16T08:47:02.145Z,100996.91
2023-03-16T08:50:20.778Z,101006.84
2023-03-16T08:53:37.342Z,100998.16
2023-03-16T08:56:45.572Z,101022.72
2023-03-16T08:59:48.126Z,101029.53
2023-03-16T09:03:17.005Z,100995.81
2023-03-16T09:06:23.112Z,101039.31
2023-03-16T09:09:27.741Z,101033.25
2023-03-16T09:12:41.145Z,101019.28
2023-03-16T09:15:44.773Z,101037.91
2023-03-16T09:18:57.459Z,101043.69
2023-03-16T09:22:01.120Z,101032.97
2023-03-16T09:25:06.967Z,101042.56
2023-03-16T09:28:09.416Z,101053.50
2023-03-16T09:31:19.695Z,101051.44
2023-03-16T09:37:27.776Z,101037.50
2023-03-16T09:40:30.958Z,101049.69
2023-03-16T09:43:58.451Z,101053.66
2023-03-16T09:47:07.686Z,101058.53
2023-03-16T09:50:21.635Z,101045.28
2023-03-16T09:53:45.434Z,101057.53
2023-03-16T09:56:54.261Z,101039.09
2023-03-16T10:00:27.441Z,101044.50
2023-03-16T10:03:46.098Z,101065.19
2023-03-16T10:07:18.986Z,101067.91
2023-03-16T10:10:31.862Z,101065.72
2023-03-16T10:14:26.462Z,101075.19
2023-03-16T10:17:54.264Z,101050.16
2023-03-16T10:20:59.417Z,101073.66
2023-03-16T10:24:05.465Z,101078.34
2023-03-16T10:27:22.154Z,101054.38
2023-03-16T10:30:33.516Z,101077.28
2023-03-16T10:33:39.919Z,101061.44
2023-03-16T10:36:46.112Z,101073.41
2023-03-16T10:39:54.450Z,101047.50
2023-03-16T10:42:58.195Z,101054.50
2023-03-16T10:46:05.329Z,101056.59
2023-03-16T10:49:27.661Z,101053.56
2023-03-16T10:52:40.763Z,101035.44
2023-03-16T10:55:46.006Z,101042.03
2023-03-16T11:02:43.196Z,101017.56
2023-03-16T11:11:29.017Z,101032.13
2023-03-16T11:14:41.958Z,101052.75
2023-03-16T11:17:56.493Z,101042.75
2023-03-16T11:21:46.290Z,101049.09
2023-03-16T11:30:11.557Z,101034.69
2023-03-16T11:33:15.736Z,101002.00
2023-03-16T11:36:55.684Z,101023.97
2023-03-16T11:40:31.859Z,101031.84
2023-03-16T11:43:55.777Z,101030.66
2023-03-16T11:47:07.319Z,101025.28
2023-03-16T11:55:19.142Z,101020.34
2023-03-16T11:58:49.802Z,101022.72
2023-03-16T12:02:33.928Z,101020.63
2023-03-16T12:06:05.663Z,101000.66
2023-03-16T12:09:33.517Z,101015.09
2023-03-16T12:17:42.225Z,101011.25
2023-03-16T12:24:48.373Z,100977.06
2023-03-16T12:27:59.437Z,100997.59
2023-03-16T12:31:17.177Z,100975.50
2023-03-16T12:34:46.322Z,101007.09
2023-03-16T12:42:33.969Z,100981.81
2023-03-16T12:46:07.308Z,101007.06
2023-03-16T12:49:10.541Z,101005.22
2023-03-16T12:52:14.964Z,100998.69
2023-03-16T12:55:20.671Z,100987.25
2023-03-16T12:58:26.304Z,100984.59
2023-03-16T13:01:31.554Z,101009.94
2023-03-16T13:04:42.010Z,100984.84
2023-03-16T13:08:07.949Z,100951.22
2023-03-16T13:11:23.756Z,100985.63
2023-03-16T13:19:16.950Z,100975.25
2023-03-16T13:32:17.037Z,101003.34
2023-03-16T13:35:21.848Z,100997.22
2023-03-16T13:38:38.532Z,100976.69
2023-03-16T13:42:26.011Z,101008.72
2023-03-16T13:45:34.358Z,100984.44
2023-03-16T13:48:41.297Z,100978.38
2023-03-16T13:51:49.025Z,100989.78
2023-03-16T13:54:58.408Z,100978.78
2023-03-16T13:58:02.314Z,100952.59
2023-03-16T14:01:23.755Z,100966.94
2023-03-16T14:04:35.499Z,100993.56
2023-03-16T14:07:40.381Z,100962.34
2023-03-16T14:15:53.183Z,100996.41
2023-03-16T14:20:06.094Z,101004.31
2023-03-16T14:26:48.413Z,100993.41
2023-03-16T14:30:04.772Z,101009.09
2023-03-16T14:33:27.230Z,101008.38
2023-03-16T14:36:35.525Z,101004.47
2023-03-16T14:39:40.597Z,101013.34
2023-03-16T14:42:46.814Z,101006.19
2023-03-16T14:45:48.807Z,101011.22
2023-03-16T14:48:50.736Z,101008.59
2023-03-16T14:51:56.052Z,101021.66
2023-03-16T14:54:59.291Z,101022.59
2023-03-16T14:58:01.823Z,101025.56
2023-03-16T15:01:06.414Z,101020.91
2023-03-16T15:04:19.534Z,101027.66
2023-03-16T15:07:32.311Z,101033.31
2023-03-16T15:10:36.123Z,101022.50
2023-03-16T15:13:40.706Z,101033.66
2023-03-16T15:16:43.588Z,101024.63
2023-03-16T15:19:45.494Z,101025.69
2023-03-16T15:22:50.013Z,101021.56
2023-03-16T15:25:57.369Z,101025.50
2023-03-16T15:28:59.629Z,101029.75
2023-03-16T15:32:01.932Z,101027.94
2023-03-16T15:35:04.374Z,101035.53
2023-03-16T15:38:14.984Z,101043.91
2023-03-16T15:41:17.356Z,101045.94
2023-03-16T15:44:22.974Z,101043.50
2023-03-16T15:47:24.748Z,101051.63
2023-03-16T15:50:27.345Z,101062.78
2023-03-16T15:53:36.041Z,101060.81
2023-03-16T15:56:53.751Z,101060.38
2023-03-16T15:59:56.577Z,101059.41
2023-03-16T16:02:59.780Z,101062.59
2023-03-16T16:06:02.242Z,101058.34
2023-03-16T16:09:05.596Z,101070.97
2023-03-16T16:12:13.524Z,101074.41
2023-03-16T16:15:21.770Z,101081.03
2023-03-16T16:18:35.174Z,101082.06
2023-03-16T16:21:37.068Z,101086.03
2023-03-16T16:24:39.714Z,101090.44
2023-03-16T16:27:41.813Z,101094.03
2023-03-16T16:30:45.277Z,101104.63
2023-03-16T16:33:47.996Z,101103.69
2023-03-16T16:36:51.698Z,101110.28
2023-03-16T16:39:53.801Z,101117.84
2023-03-16T16:42:57.536Z,101115.69
2023-03-16T16:46:04.600Z,101116.81
2023-03-16T16:49:17.861Z,101132.75
2023-03-16T16:52:19.972Z,101127.53
2023-03-16T16:55:23.098Z,101130.41
2023-03-16T16:58:26.018Z,101131.09
2023-03-16T17:01:35.117Z,101150.06
2023-03-16T17:04:37.396Z,101162.31
2023-03-16T17:07:39.852Z,101160.94
2023-03-16T17:10:44.935Z,101159.81
2023-03-16T17:13:47.516Z,101160.75
2023-03-16T17:16:53.506Z,101159.28
2023-03-16T17:19:55.505Z,101154.47
2023-03-16T17:22:58.800Z,101175.88
2023-03-16T17:26:11.804Z,101170.59
2023-03-16T17:29:28.076Z,101176.78
2023-03-16T17:32:31.504Z,101178.19
2023-03-16T17:35:33.685Z,101180.53
2023-03-16T17:38:36.287Z,101187.22
2023-03-16T17:41:38.396Z,101182.38
2023-03-16T17:44:44.984Z,101179.66
2023-03-16T17:47:48.393Z,101190.66
2023-03-16T17:50:51.616Z,101187.78
2023-03-16T17:53:54.713Z,101189.94
2023-03-16T17:56:57.221Z,101190.91
2023-03-16T18:00:04.803Z,101196.00
2023-03-16T18:03:17.754Z,101190.88
2023-03-16T18:06:23.975Z,101199.38
2023-03-16T18:09:26.055Z,101208.72
2023-03-16T18:12:28.460Z,101216.59
2023-03-16T18:15:36.811Z,101217.47
2023-03-16T18:18:43.157Z,101210.50
2023-03-16T18:21:45.974Z,101216.91
2023-03-16T18:24:50.221Z,101224.94
2023-03-16T18:27:53.469Z,101218.47
2023-03-16T18:30:58.580Z,101220.81
2023-03-16T18:34:05.967Z,101230.81
2023-03-16T18:37:17.269Z,101231.31
2023-03-16T18:40:21.940Z,101234.63
2023-03-16T18:43:26.735Z,101244.28
2023-03-16T18:46:37.388Z,101242.19
2023-03-16T18:49:40.036Z,101243.59
2023-03-16T18:52:42.270Z,101261.34
2023-03-16T18:55:45.131Z,101268.81
2023-03-16T18:58:48.728Z,101278.94
2023-03-16T19:01:52.299Z,101282.25
2023-03-16T19:05:02.216Z,101294.56
2023-03-16T19:08:05.116Z,101298.28
2023-03-16T19:11:08.233Z,101308.66
2023-03-16T19:14:20.395Z,101313.56
2023-03-16T19:17:23.689Z,101313.44
2023-03-16T19:20:29.244Z,101310.72
2023-03-16T19:23:36.278Z,101316.09
2023-03-16T19:26:39.165Z,101320.84
2023-03-16T19:29:41.540Z,101325.34
2023-03-16T19:32:46.495Z,101328.19
2023-03-16T19:35:52.194Z,101332.59
2023-03-16T19:38:56.528Z,101338.72
2023-03-16T19:42:00.276Z,101342.91
2023-03-16T19:45:04.411Z,101351.88
2023-03-16T19:48:32.255Z,101353.06
2023-03-16T19:51:34.759Z,101356.75
2023-03-16T19:54:39.791Z,101355.09
2023-03-16T19:57:42.618Z,101346.34
2023-03-16T20:00:46.312Z,101356.97
2023-03-16T20:03:51.734Z,101368.22
2023-03-16T20:06:54.731Z,101356.13
2023-03-16T20:09:57.584Z,101378.44
2023-03-16T20:13:01.713Z,101376.94
2023-03-16T20:16:04.018Z,101373.03
2023-03-16T20:19:13.740Z,101379.06
2023-03-16T20:22:22.450Z,101376.63
2023-03-16T20:25:30.351Z,101375.13
2023-03-16T20:28:36.361Z,101386.31
2023-03-16T20:31:38.819Z,101393.44
2023-03-16T20:34:41.047Z,101391.38
2023-03-16T20:37:43.148Z,101402.63
2023-03-16T20:40:47.629Z,101394.22
2023-03-16T20:43:50.043Z,101404.13
2023-03-16T20:46:52.330Z,101395.00
2023-03-16T20:49:57.632Z,101405.19
2023-03-16T20:53:00.928Z,101400.34
2023-03-16T20:56:03.308Z,101403.75
2023-03-16T20:59:05.413Z,101410.31
2023-03-16T21:02:34.257Z,101398.13
2023-03-16T21:05:36.585Z,101396.25
2023-03-16T21:08:38.777Z,101400.34
2023-03-16T21:11:43.748Z,101410.31
2023-03-16T21:14:46.317Z,101394.16
2023-03-16T21:18:01.948Z,101406.09
2023-03-16T21:21:03.896Z,101413.38
2023-03-16T21:24:06.967Z,101415.91
2023-03-16T21:27:18.652Z,101421.91
2023-03-16T21:30:29.668Z,101429.16
2023-03-16T21:33:35.287Z,101435.19
2023-03-16T21:36:37.353Z,101436.31
2023-03-16T21:39:39.476Z,101432.34
2023-03-16T21:42:41.498Z,101435.25
2023-03-16T21:45:44.905Z,101433.16
2023-03-16T21:48:55.872Z,101426.75
2023-03-16T21:51:57.820Z,101421.75
2023-03-16T21:55:00.707Z,101429.97
2023-03-16T21:58:02.833Z,101434.03
2023-03-16T22:01:04.735Z,101425.22
2023-03-16T22:04:17.740Z,101423.69
2023-03-16T22:07:20.837Z,101435.31
2023-03-16T22:10:23.154Z,101432.63
2023-03-16T22:13:29.573Z,101437.13
2023-03-16T22:16:34.944Z,101437.84
2023-03-16T22:19:37.091Z,101438.66
2023-03-16T22:22:39.153Z,101437.31
2023-03-16T22:25:40.996Z,101442.00
2023-03-16T22:28:43.336Z,101439.25
2023-03-16T22:31:47.170Z,101433.16
2023-03-16T22:34:53.727Z,101436.78
2023-03-16T22:37:57.432Z,101437.00
2023-03-16T22:41:00.170Z,101429.75
2023-03-16T22:44:02.264Z,101440.22
2023-03-16T22:47:07.007Z,101434.34
2023-03-16T22:50:15.010Z,101440.97
2023-03-16T22:53:35.877Z,101439.94
2023-03-16T22:56:46.948Z,101433.41
2023-03-16T22:59:50.480Z,101439.22
2023-03-16T23:02:52.549Z,101440.38
2023-03-16T23:05:54.669Z,101444.28
2023-03-16T23:08:56.939Z,101442.25
2023-03-16T23:12:01.111Z,101450.97
2023-03-16T23:15:03.511Z,101452.00
2023-03-16T23:18:15.221Z,101461.66
2023-03-16T23:21:20.810Z,101462.56
2023-03-16T23:24:23.787Z,101471.19
2023-03-16T23:27:25.620Z,101463.31
2023-03-16T23:30:28.521Z,101462.38
2023-03-16T23:33:31.575Z,101468.97
2023-03-16T23:36:33.619Z,101461.41
2023-03-16T23:39:35.374Z,101466.91
2023-03-16T23:42:37.182Z,101464.84
2023-03-16T23:45:45.378Z,101470.88
2023-03-16T23:48:49.195Z,101468.38
2023-03-16T23:51:52.553Z,101466.53
2023-03-16T23:55:01.420Z,101469.84
2023-03-16T23:58:03.408Z,101468.66
